Time;durP1;ratioP1;P1;durP2;ratioP2;P2;SDS_P1;SDS_P2;PMS_P1;PMS_P2;Temp;Humidity;BMP_temperature;BMP_pressure;BME280_temperature;BME280_humidity;BME280_pressure;Samples;Min_cycle;Max_cycle;Signal;HPM_P1;HPM_P2
2023/01/21 00:01:15;;;;;;;10.43;6.03;;;-1.00;99.90;;;;;;7374748;19;20304;-79
2023/01/21 00:03:41;;;;;;;11.25;7.32;;;-1.00;99.90;;;;;;7376844;19;20396;-84
2023/01/21 00:06:08;;;;;;;11.77;7.60;;;-1.00;99.90;;;;;;7378288;19;20854;-79
2023/01/21 00:08:33;;;;;;;10.82;6.72;;;-1.00;99.90;;;;;;7376277;19;20317;-80
2023/01/21 00:11:10;;;;;;;8.70;5.97;;;-1.00;99.90;;;;;;7377209;19;20323;-77
2023/01/21 00:13:35;;;;;;;9.60;6.78;;;-1.10;99.90;;;;;;7376213;19;21324;-78
2023/01/21 00:16:05;;;;;;;11.77;7.53;;;-1.00;99.90;;;;;;7379680;19;20325;-78
2023/01/21 00:18:31;;;;;;;11.35;6.00;;;-1.00;99.90;;;;;;7375708;19;20744;-80
2023/01/21 00:20:57;;;;;;;9.68;6.47;;;-1.00;99.90;;;;;;7377383;19;20455;-81
2023/01/21 00:23:22;;;;;;;10.90;7.23;;;-0.90;99.90;;;;;;7376359;19;20353;-79
2023/01/21 00:25:49;;;;;;;13.50;7.65;;;-0.90;99.90;;;;;;7377539;19;20328;-81
2023/01/21 00:28:16;;;;;;;10.43;6.17;;;-0.90;99.90;;;;;;7376855;19;20325;-78
2023/01/21 00:30:42;;;;;;;11.15;6.45;;;-0.90;99.90;;;;;;7378593;19;20325;-79
2023/01/21 00:33:08;;;;;;;12.40;7.50;;;-0.90;99.90;;;;;;7378905;19;20333;-78
2023/01/21 00:35:33;;;;;;;11.73;6.57;;;-0.80;99.90;;;;;;7377914;19;21440;-80
2023/01/21 00:37:59;;;;;;;12.00;6.90;;;-0.90;99.90;;;;;;7382164;19;20351;-79
2023/01/21 00:40:25;;;;;;;13.80;7.97;;;-0.90;99.90;;;;;;7381002;19;20361;-83
2023/01/21 00:42:50;;;;;;;11.38;8.13;;;-0.80;99.90;;;;;;7382474;19;20316;-80
2023/01/21 00:45:18;;;;;;;11.70;8.13;;;-0.90;99.90;;;;;;7382747;19;20372;-78
2023/01/21 00:47:43;;;;;;;12.98;8.32;;;-0.90;99.90;;;;;;7384763;19;20344;-85
2023/01/21 00:50:10;;;;;;;12.33;7.33;;;-0.90;99.90;;;;;;7383224;19;20305;-80
2023/01/21 00:52:35;;;;;;;14.50;8.47;;;-1.00;99.90;;;;;;7384267;19;20320;-79
2023/01/21 00:55:01;;;;;;;13.20;7.70;;;-1.10;99.90;;;;;;7384149;19;20971;-77
2023/01/21 00:57:26;;;;;;;10.87;7.57;;;-1.10;99.90;;;;;;7385034;19;20428;-79
2023/01/21 00:59:52;;;;;;;16.97;7.90;;;-1.00;99.90;;;;;;7383839;19;20335;-84
2023/01/21 01:02:18;;;;;;;12.88;9.23;;;-1.00;99.90;;;;;;7384369;19;20317;-82
2023/01/21 01:04:44;;;;;;;10.15;6.82;;;-1.00;99.90;;;;;;7384971;19;20301;-80
2023/01/21 01:07:09;;;;;;;12.47;7.63;;;-1.00;99.90;;;;;;7385660;19;20336;-82
2023/01/21 01:09:35;;;;;;;12.32;7.47;;;-1.10;99.90;;;;;;7385195;19;20728;-78
2023/01/21 01:12:00;;;;;;;13.67;8.70;;;-1.00;99.90;;;;;;7383559;19;20392;-78
2023/01/21 01:14:27;;;;;;;12.73;7.38;;;-1.10;99.90;;;;;;7384690;19;20447;-79
2023/01/21 01:16:53;;;;;;;12.85;7.82;;;-1.10;99.90;;;;;;7383320;19;20480;-82
2023/01/21 01:19:18;;;;;;;11.93;7.57;;;-1.00;99.90;;;;;;7384742;19;20979;-81
2023/01/21 01:21:44;;;;;;;15.47;8.60;;;-1.00;99.90;;;;;;7384033;19;20934;-80
2023/01/21 01:24:09;;;;;;;12.32;7.22;;;-1.00;99.90;;;;;;7383247;19;20304;-81
2023/01/21 01:26:35;;;;;;;12.97;7.63;;;-1.00;99.90;;;;;;7383791;19;20313;-80
2023/01/21 01:29:02;;;;;;;12.00;7.65;;;-1.00;99.90;;;;;;7383861;19;20390;-78
2023/01/21 01:31:28;;;;;;;14.32;8.77;;;-1.00;99.90;;;;;;7381946;19;20751;-78
2023/01/21 01:33:53;;;;;;;11.70;6.90;;;-0.90;99.90;;;;;;7382600;19;20378;-78
2023/01/21 01:36:22;;;;;;;11.07;7.40;;;-0.90;99.90;;;;;;7382250;19;20337;-82
2023/01/21 01:38:57;;;;;;;14.90;9.07;;;-0.90;99.90;;;;;;7385772;19;20360;-83
2023/01/21 01:41:31;;;;;;;15.00;8.48;;;-1.00;99.90;;;;;;7385766;19;20328;-77
2023/01/21 01:44:00;;;;;;;11.70;6.97;;;-1.00;99.90;;;;;;7385599;19;20674;-80
2023/01/21 01:46:27;;;;;;;14.17;7.27;;;-1.00;99.90;;;;;;7387223;19;20412;-77
2023/01/21 01:49:14;;;;;;;16.05;9.27;;;-1.00;99.90;;;;;;7385921;19;20329;-77
2023/01/21 01:51:46;;;;;;;10.63;7.00;;;-1.00;99.90;;;;;;7387559;19;20307;-78
2023/01/21 01:54:14;;;;;;;12.35;7.70;;;-1.00;99.90;;;;;;7387128;19;20321;-78
2023/01/21 01:56:43;;;;;;;10.38;6.90;;;-1.00;99.90;;;;;;7387731;19;20317;-76
2023/01/21 01:59:08;;;;;;;12.75;8.10;;;-0.90;99.90;;;;;;7386924;19;20329;-76
2023/01/21 02:01:41;;;;;;;13.43;7.53;;;-1.00;99.90;;;;;;7385312;19;20308;-80
2023/01/21 02:04:11;;;;;;;12.80;7.82;;;-1.00;99.90;;;;;;7385755;19;20412;-77
2023/01/21 02:06:40;;;;;;;11.67;8.07;;;-1.00;99.90;;;;;;7388319;19;20313;-79
2023/01/21 02:09:06;;;;;;;13.52;9.10;;;-1.00;99.90;;;;;;7387572;19;21283;-78
2023/01/21 02:11:31;;;;;;;11.80;7.03;;;-1.10;99.90;;;;;;7387926;19;20325;-84
2023/01/21 02:14:03;;;;;;;11.63;6.97;;;-1.00;99.90;;;;;;7387311;19;20718;-79
2023/01/21 02:16:58;;;;;;;13.25;7.38;;;-0.90;99.90;;;;;;7387141;19;20331;-79
2023/01/21 02:19:37;;;;;;;15.65;9.38;;;-1.10;99.90;;;;;;7283037;19;2020049;-79
2023/01/21 02:22:11;;;;;;;11.00;6.60;;;-1.10;99.90;;;;;;7386313;19;20304;-78
2023/01/21 02:25:08;;;;;;;13.48;8.10;;;-1.10;99.90;;;;;;7386300;19;20305;-79
2023/01/21 02:27:44;;;;;;;12.10;8.65;;;-1.10;99.90;;;;;;7283654;19;2020212;-79
2023/01/21 02:30:45;;;;;;;15.02;9.07;;;-1.10;99.90;;;;;;7384488;19;20312;-82
2023/01/21 02:33:16;;;;;;;13.63;7.63;;;-1.00;99.90;;;;;;7285285;19;2004808;-79
2023/01/21 02:35:57;;;;;;;12.02;7.72;;;-1.00;99.90;;;;;;7386795;19;20325;-82
2023/01/21 02:38:33;;;;;;;13.70;8.80;;;-1.00;99.90;;;;;;7287261;19;2004351;-78
2023/01/21 02:41:10;;;;;;;10.98;8.27;;;-1.10;99.90;;;;;;7384731;19;20316;-77
2023/01/21 02:44:24;;;;;;;10.83;6.97;;;-1.10;99.90;;;;;;7385350;19;20312;-78
2023/01/21 02:46:55;;;;;;;11.35;6.63;;;-1.10;99.90;;;;;;7179897;19;2005076;-80
2023/01/21 02:49:39;;;;;;;15.13;8.80;;;-1.10;99.90;;;;;;7385001;19;20363;-77
2023/01/21 02:52:05;;;;;;;15.63;7.33;;;-1.10;99.90;;;;;;7386176;19;20316;-83
2023/01/21 02:54:39;;;;;;;9.83;6.50;;;-1.10;99.90;;;;;;7386839;19;20337;-77
2023/01/21 02:57:09;;;;;;;14.27;6.70;;;-1.10;99.90;;;;;;7386152;19;20312;-79
2023/01/21 02:59:35;;;;;;;12.48;8.30;;;-1.00;99.90;;;;;;7384531;19;20442;-80
2023/01/21 03:02:08;;;;;;;10.38;5.95;;;-1.10;99.90;;;;;;7385778;19;21221;-81
2023/01/21 03:05:05;;;;;;;11.60;6.88;;;-1.00;99.90;;;;;;7384995;19;20312;-77
2023/01/21 03:07:40;;;;;;;9.68;6.43;;;-1.10;99.90;;;;;;7284645;19;2004371;-76
2023/01/21 03:10:10;;;;;;;8.80;6.37;;;-1.10;99.90;;;;;;7385030;19;20305;-84
2023/01/21 03:13:00;;;;;;;7.43;5.43;;;-1.10;99.90;;;;;;7387025;19;20408;-77
2023/01/21 03:18:30;;;;;;;6.97;5.10;;;-1.10;99.90;;;;;;7282951;19;2004505;-77
2023/01/21 03:21:07;;;;;;;8.45;5.47;;;-1.10;99.90;;;;;;7385068;19;20305;-77
2023/01/21 03:23:46;;;;;;;9.57;5.30;;;-1.00;99.90;;;;;;7385247;19;20290;-75
2023/01/21 03:26:13;;;;;;;10.00;5.30;;;-1.00;99.90;;;;;;7386263;19;20367;-77
2023/01/21 03:28:42;;;;;;;9.65;5.38;;;-1.00;99.90;;;;;;7383811;19;20689;-79
2023/01/21 03:31:09;;;;;;;8.80;5.13;;;-1.00;99.90;;;;;;7384174;19;20323;-76
2023/01/21 03:33:37;;;;;;;9.18;5.22;;;-1.00;99.90;;;;;;7385474;19;20321;-82
2023/01/21 03:36:07;;;;;;;8.10;5.18;;;-1.10;99.90;;;;;;7384350;19;20331;-77
2023/01/21 03:38:38;;;;;;;7.75;5.82;;;-1.10;99.90;;;;;;7383836;19;20320;-83
2023/01/21 03:41:08;;;;;;;7.95;5.47;;;-1.00;99.90;;;;;;7383776;19;20325;-79
2023/01/21 03:43:34;;;;;;;8.88;5.28;;;-1.00;99.90;;;;;;7384454;19;20923;-78
2023/01/21 03:46:19;;;;;;;10.10;5.57;;;-0.90;99.90;;;;;;7385947;19;20308;-78
2023/01/21 03:48:55;;;;;;;11.20;6.35;;;-0.90;99.90;;;;;;7281908;19;2004192;-78
2023/01/21 03:51:24;;;;;;;8.45;4.70;;;-0.90;99.90;;;;;;7384431;19;20328;-79
2023/01/21 03:53:56;;;;;;;7.40;5.32;;;-0.90;99.90;;;;;;7384030;19;20321;-80
2023/01/21 03:56:23;;;;;;;8.27;6.07;;;-0.90;99.90;;;;;;7383883;19;20319;-81
2023/01/21 03:58:49;;;;;;;10.93;6.60;;;-0.80;99.90;;;;;;7385344;19;20896;-81
2023/01/21 04:01:21;;;;;;;11.17;6.37;;;-0.80;99.90;;;;;;7384225;19;20388;-78
2023/01/21 04:03:49;;;;;;;6.88;4.72;;;-0.80;99.90;;;;;;7385310;19;20726;-76
2023/01/21 04:06:16;;;;;;;11.07;5.93;;;-0.80;99.90;;;;;;7385733;19;20332;-81
2023/01/21 04:08:41;;;;;;;8.77;5.68;;;-0.80;99.90;;;;;;7385388;19;20400;-80
2023/01/21 04:11:07;;;;;;;8.97;6.60;;;-0.90;99.90;;;;;;7385326;19;20340;-81
2023/01/21 04:13:33;;;;;;;8.63;5.47;;;-0.90;99.90;;;;;;7392750;19;20659;-82
2023/01/21 04:15:58;;;;;;;6.88;5.22;;;-0.90;99.90;;;;;;7396391;19;20402;-79
2023/01/21 04:18:30;;;;;;;10.67;6.37;;;-0.90;99.90;;;;;;7393389;19;20316;-78
2023/01/21 04:21:01;;;;;;;7.95;5.38;;;-0.90;99.90;;;;;;7392957;19;20304;-78
2023/01/21 04:23:27;;;;;;;7.55;5.05;;;-0.90;99.90;;;;;;7391218;19;20319;-79
2023/01/21 04:25:52;;;;;;;9.10;5.73;;;-0.80;99.90;;;;;;7392187;19;20659;-78
2023/01/21 04:28:20;;;;;;;9.47;5.80;;;-0.80;99.90;;;;;;7392211;19;20321;-77
2023/01/21 04:30:46;;;;;;;8.50;6.32;;;-0.80;99.90;;;;;;7391981;19;20412;-80
2023/01/21 04:33:12;;;;;;;7.43;5.37;;;-0.80;99.90;;;;;;7393149;19;20337;-79
2023/01/21 04:35:40;;;;;;;10.07;5.57;;;-0.80;99.90;;;;;;7391496;19;20744;-78
2023/01/21 04:38:06;;;;;;;8.63;5.22;;;-0.70;99.90;;;;;;7392483;19;20632;-80
2023/01/21 04:40:44;;;;;;;7.77;5.17;;;-0.70;99.90;;;;;;7391994;19;20413;-82
2023/01/21 04:43:09;;;;;;;9.05;5.82;;;-0.60;99.90;;;;;;7390402;19;20751;-78
2023/01/21 04:45:36;;;;;;;7.13;4.97;;;-0.60;99.90;;;;;;7390725;19;20304;-80
2023/01/21 04:48:01;;;;;;;13.05;5.75;;;-0.70;99.90;;;;;;7390312;19;20309;-79
2023/01/21 04:50:36;;;;;;;8.73;5.87;;;-0.70;99.90;;;;;;7391634;19;20861;-78
2023/01/21 04:53:02;;;;;;;6.45;5.03;;;-0.80;99.90;;;;;;7390863;19;20367;-81
2023/01/21 04:55:27;;;;;;;7.57;5.33;;;-0.60;99.90;;;;;;7390329;19;20325;-77
2023/01/21 04:57:53;;;;;;;6.20;4.50;;;-0.60;99.90;;;;;;7390772;19;20305;-78
2023/01/21 05:00:20;;;;;;;6.80;5.07;;;-0.60;99.90;;;;;;7390026;19;20308;-77
2023/01/21 05:02:53;;;;;;;10.43;5.90;;;-0.60;99.90;;;;;;7388936;19;20343;-82
2023/01/21 05:05:25;;;;;;;7.75;5.88;;;-0.70;99.90;;;;;;7391881;19;20324;-77
2023/01/21 05:07:52;;;;;;;7.50;5.15;;;-0.70;99.90;;;;;;7390885;19;20626;-78
2023/01/21 05:10:18;;;;;;;8.25;5.10;;;-0.60;99.90;;;;;;7390547;19;20308;-80
2023/01/21 05:12:43;;;;;;;10.83;6.13;;;-0.70;99.90;;;;;;7390837;19;20325;-79
2023/01/21 05:15:09;;;;;;;9.48;6.15;;;-0.80;99.90;;;;;;7389463;19;20944;-79
2023/01/21 05:17:37;;;;;;;12.27;6.17;;;-0.80;99.90;;;;;;7390700;19;20319;-79
2023/01/21 05:20:03;;;;;;;8.63;5.65;;;-0.70;99.90;;;;;;7388468;19;20384;-83
2023/01/21 05:22:28;;;;;;;8.95;6.05;;;-0.70;99.90;;;;;;7387671;19;20863;-78
2023/01/21 05:24:54;;;;;;;8.23;6.13;;;-0.70;99.90;;;;;;7390016;19;20339;-79
2023/01/21 05:27:21;;;;;;;9.20;6.43;;;-0.80;99.90;;;;;;7389740;19;20650;-83
2023/01/21 05:29:47;;;;;;;8.52;6.50;;;-0.80;99.90;;;;;;7389766;19;20758;-83
2023/01/21 05:32:13;;;;;;;7.88;5.10;;;-0.70;99.90;;;;;;7389489;19;20333;-82
2023/01/21 05:34:38;;;;;;;11.63;6.80;;;-0.70;99.90;;;;;;7390857;19;20312;-79
2023/01/21 05:37:10;;;;;;;10.77;6.40;;;-0.80;99.90;;;;;;7390106;19;20335;-79
2023/01/21 05:39:36;;;;;;;7.88;5.72;;;-0.70;99.90;;;;;;7389815;19;20896;-78
2023/01/21 05:42:07;;;;;;;9.33;5.37;;;-0.70;99.90;;;;;;7388626;19;20428;-80
2023/01/21 05:44:33;;;;;;;10.82;6.50;;;-0.60;99.90;;;;;;7390315;19;20301;-78
2023/01/21 05:46:59;;;;;;;8.97;6.43;;;-0.50;99.90;;;;;;7390719;19;20312;-78
2023/01/21 05:49:25;;;;;;;12.68;6.53;;;-0.60;99.90;;;;;;7390366;19;20321;-83
2023/01/21 05:51:50;;;;;;;7.37;5.23;;;-0.60;99.90;;;;;;7390999;19;20338;-79
2023/01/21 05:54:17;;;;;;;9.23;6.00;;;-0.50;99.90;;;;;;7390050;19;20395;-83
2023/01/21 05:56:43;;;;;;;9.00;6.15;;;-0.50;99.90;;;;;;7394711;19;20312;-84
2023/01/21 05:59:08;;;;;;;8.70;6.25;;;-0.50;99.90;;;;;;7392475;19;20409;-84
2023/01/21 06:01:36;;;;;;;7.53;6.03;;;-0.60;99.90;;;;;;7391497;19;20360;-79
2023/01/21 06:04:02;;;;;;;9.85;6.20;;;-0.60;99.90;;;;;;7392673;19;20309;-78
2023/01/21 06:06:39;;;;;;;8.97;6.17;;;-0.60;99.90;;;;;;7390063;19;20866;-79
2023/01/21 06:09:05;;;;;;;9.65;6.45;;;-0.70;99.90;;;;;;7385867;19;20330;-82
2023/01/21 06:11:31;;;;;;;7.57;5.87;;;-0.70;99.90;;;;;;7388327;19;20301;-83
2023/01/21 06:13:57;;;;;;;9.95;6.55;;;-0.60;99.90;;;;;;7388805;19;20331;-88
2023/01/21 06:16:26;;;;;;;7.85;6.05;;;-0.60;99.90;;;;;;7385099;19;20316;-80
2023/01/21 06:18:51;;;;;;;9.90;6.68;;;-0.60;99.90;;;;;;7385419;19;20739;-79
2023/01/21 06:21:17;;;;;;;9.82;5.57;;;-0.60;99.90;;;;;;7387217;19;20326;-82
2023/01/21 06:23:46;;;;;;;8.37;6.37;;;-0.50;99.90;;;;;;7391763;19;20404;-80
2023/01/21 06:26:11;;;;;;;12.55;7.35;;;-0.60;99.90;;;;;;7386669;19;20315;-83
2023/01/21 06:28:44;;;;;;;10.00;6.18;;;-0.60;99.90;;;;;;7363248;19;20316;-79
2023/01/21 06:31:10;;;;;;;8.10;6.28;;;-0.50;99.90;;;;;;7384374;19;20307;-79
2023/01/21 06:33:36;;;;;;;9.90;6.93;;;-0.60;99.90;;;;;;7380995;19;20305;-77
2023/01/21 06:36:02;;;;;;;8.68;6.15;;;-0.60;99.90;;;;;;7386870;19;20313;-79
2023/01/21 06:38:30;;;;;;;9.57;6.60;;;-0.60;99.90;;;;;;7385552;19;20323;-80
2023/01/21 06:40:56;;;;;;;9.63;6.85;;;-0.60;99.90;;;;;;7386153;19;20404;-79
2023/01/21 06:43:23;;;;;;;8.32;6.05;;;-0.50;99.90;;;;;;7378636;19;20341;-82
2023/01/21 06:45:49;;;;;;;9.27;6.53;;;-0.60;99.90;;;;;;7385525;19;20838;-79
2023/01/21 06:48:15;;;;;;;9.93;7.30;;;-0.60;99.90;;;;;;7365933;19;20340;-82
2023/01/21 06:50:50;;;;;;;10.47;7.47;;;-0.60;99.90;;;;;;7382564;19;20300;-80
2023/01/21 06:53:15;;;;;;;9.20;7.00;;;-0.70;99.90;;;;;;7281222;19;2004543;-78
2023/01/21 06:55:41;;;;;;;10.18;7.68;;;-0.70;99.90;;;;;;7389009;19;20309;-79
2023/01/21 06:58:07;;;;;;;9.68;7.10;;;-0.60;99.90;;;;;;7388756;19;20345;-81
2023/01/21 07:00:33;;;;;;;8.87;7.23;;;-0.70;99.90;;;;;;7382745;19;20301;-79
2023/01/21 07:02:59;;;;;;;9.03;6.90;;;-0.70;99.90;;;;;;7388837;19;20946;-83
2023/01/21 07:05:25;;;;;;;12.02;7.20;;;-0.70;99.90;;;;;;7390263;19;20381;-81
2023/01/21 07:07:54;;;;;;;10.45;7.53;;;-0.70;99.90;;;;;;7380120;19;20312;-80
2023/01/21 07:10:22;;;;;;;12.13;7.80;;;-0.70;99.90;;;;;;7382991;19;20356;-82
2023/01/21 07:12:49;;;;;;;10.13;7.40;;;-0.80;99.90;;;;;;7381032;19;20309;-79
2023/01/21 07:15:14;;;;;;;8.40;6.30;;;-0.80;99.90;;;;;;7384147;19;20297;-87
2023/01/21 07:17:40;;;;;;;10.97;7.57;;;-0.80;99.90;;;;;;7364071;19;20351;-79
2023/01/21 07:20:14;;;;;;;12.23;6.68;;;-0.70;99.90;;;;;;7385578;19;20472;-79
2023/01/21 07:22:40;;;;;;;9.38;7.43;;;-0.70;99.90;;;;;;7384600;19;20313;-78
2023/01/21 07:25:06;;;;;;;10.45;6.93;;;-0.60;99.90;;;;;;7381458;19;20301;-77
2023/01/21 07:27:32;;;;;;;8.68;6.22;;;-0.60;99.90;;;;;;7384556;19;20378;-81
2023/01/21 07:29:58;;;;;;;10.68;7.13;;;-0.60;99.90;;;;;;7386519;19;20313;-79
2023/01/21 07:32:26;;;;;;;10.63;6.87;;;-0.60;99.90;;;;;;7385674;19;20328;-82
2023/01/21 07:34:52;;;;;;;9.63;7.15;;;-0.50;99.90;;;;;;7386556;19;20332;-80
2023/01/21 07:37:27;;;;;;;9.70;7.30;;;-0.60;99.90;;;;;;7385936;19;20317;-80
2023/01/21 07:39:54;;;;;;;9.73;6.78;;;-0.60;99.90;;;;;;7382003;19;20336;-82
2023/01/21 07:42:20;;;;;;;10.95;7.70;;;-0.60;99.90;;;;;;7382271;19;20850;-86
2023/01/21 07:44:47;;;;;;;11.07;7.35;;;-0.60;99.90;;;;;;7382720;19;20320;-81
2023/01/21 07:47:20;;;;;;;11.23;7.65;;;-0.60;99.90;;;;;;7386443;19;20317;-77
2023/01/21 07:49:48;;;;;;;10.43;7.28;;;-0.60;99.90;;;;;;7281396;19;2004368;-79
2023/01/21 07:52:15;;;;;;;10.27;7.53;;;-0.60;99.90;;;;;;7385301;19;20339;-81
2023/01/21 07:54:40;;;;;;;11.68;7.68;;;-0.60;99.90;;;;;;7385505;19;20299;-79
2023/01/21 07:57:06;;;;;;;13.63;8.33;;;-0.60;99.90;;;;;;7364780;19;20324;-77
2023/01/21 07:59:34;;;;;;;12.85;8.35;;;-0.60;99.90;;;;;;7383432;19;20313;-82
2023/01/21 08:02:00;;;;;;;13.33;7.70;;;-0.60;99.90;;;;;;7381041;19;20316;-79
2023/01/21 08:04:26;;;;;;;11.45;7.80;;;-0.60;99.90;;;;;;7382641;19;20362;-82
2023/01/21 08:06:55;;;;;;;11.32;7.60;;;-0.50;99.90;;;;;;7381252;19;20328;-80
2023/01/21 08:09:23;;;;;;;10.10;7.60;;;-0.60;99.90;;;;;;7382681;19;20345;-78
2023/01/21 08:11:51;;;;;;;10.93;7.90;;;-0.40;99.90;;;;;;7382176;19;20312;-77
2023/01/21 08:14:17;;;;;;;13.03;7.90;;;-0.40;99.90;;;;;;7382231;19;20629;-78
2023/01/21 08:16:42;;;;;;;9.82;7.50;;;-0.50;99.90;;;;;;7383781;19;20316;-79
2023/01/21 08:19:08;;;;;;;10.20;7.68;;;-0.50;99.90;;;;;;7383589;19;20312;-79
2023/01/21 08:21:34;;;;;;;11.33;7.50;;;-0.40;99.90;;;;;;7382068;19;20324;-84
2023/01/21 08:23:59;;;;;;;11.80;7.53;;;-0.40;99.90;;;;;;7382301;19;20305;-83
2023/01/21 08:26:34;;;;;;;10.97;7.87;;;-0.40;99.90;;;;;;7381264;19;20305;-81
2023/01/21 08:28:59;;;;;;;10.50;7.47;;;-0.40;99.90;;;;;;7382882;19;20757;-83
2023/01/21 08:31:31;;;;;;;11.67;7.40;;;-0.30;99.90;;;;;;7383631;19;20312;-77
2023/01/21 08:33:57;;;;;;;13.30;7.97;;;-0.20;99.90;;;;;;7381939;19;20321;-83
2023/01/21 08:36:23;;;;;;;11.82;7.78;;;-0.10;99.90;;;;;;7382474;19;20309;-77
2023/01/21 08:38:52;;;;;;;8.90;7.03;;;-0.20;99.90;;;;;;7382699;19;20327;-80
2023/01/21 08:41:31;;;;;;;10.13;7.47;;;-0.20;99.90;;;;;;7382319;19;20647;-82
2023/01/21 08:43:58;;;;;;;9.95;7.45;;;-0.20;99.90;;;;;;7382245;19;20330;-82
2023/01/21 08:46:23;;;;;;;11.05;7.65;;;-0.20;99.90;;;;;;7383673;19;20849;-80
2023/01/21 08:48:50;;;;;;;8.88;7.10;;;-0.20;99.90;;;;;;7380046;19;20396;-80
2023/01/21 08:51:16;;;;;;;11.63;7.05;;;-0.10;99.90;;;;;;7383221;19;20313;-78
2023/01/21 08:53:43;;;;;;;10.35;7.55;;;-0.10;99.90;;;;;;7384608;19;20744;-79
2023/01/21 08:56:09;;;;;;;9.68;7.03;;;-0.20;99.90;;;;;;7383679;19;20655;-78
2023/01/21 08:58:35;;;;;;;10.53;6.80;;;0.00;99.90;;;;;;7389466;19;20313;-80
2023/01/21 09:01:08;;;;;;;10.93;7.18;;;0.00;99.90;;;;;;7388598;19;20822;-84
2023/01/21 09:03:33;;;;;;;9.17;7.17;;;0.00;99.90;;;;;;7389906;19;20871;-82
2023/01/21 09:06:01;;;;;;;10.95;7.10;;;0.00;99.90;;;;;;7390033;19;20373;-80
2023/01/21 09:08:27;;;;;;;9.40;6.47;;;0.10;99.90;;;;;;7390343;19;20366;-81
2023/01/21 09:11:00;;;;;;;10.18;7.00;;;0.20;99.90;;;;;;7390838;19;20420;-81
2023/01/21 09:13:29;;;;;;;9.88;6.85;;;0.20;99.90;;;;;;7391935;19;20668;-80
2023/01/21 09:15:55;;;;;;;9.25;6.85;;;0.20;99.90;;;;;;7391963;19;20348;-80
2023/01/21 09:18:20;;;;;;;9.80;6.97;;;0.40;99.90;;;;;;7393444;19;20652;-78
2023/01/21 09:20:46;;;;;;;10.57;6.97;;;0.30;99.90;;;;;;7393165;19;20313;-82
2023/01/21 09:23:25;;;;;;;10.83;7.13;;;0.30;99.90;;;;;;7391238;19;20726;-85
2023/01/21 09:25:59;;;;;;;8.77;6.32;;;0.30;99.90;;;;;;7288328;19;2004339;-81
2023/01/21 09:28:25;;;;;;;9.07;6.13;;;0.40;99.90;;;;;;7387896;19;20325;-78
2023/01/21 09:31:01;;;;;;;8.60;6.47;;;0.50;99.90;;;;;;7389404;19;20835;-79
2023/01/21 09:33:27;;;;;;;8.90;5.83;;;0.60;99.90;;;;;;7390283;19;20312;-82
2023/01/21 09:35:53;;;;;;;8.47;6.83;;;0.70;99.90;;;;;;7390927;19;20853;-80
2023/01/21 09:38:25;;;;;;;7.72;6.25;;;0.70;99.90;;;;;;7394098;19;20340;-84
2023/01/21 09:40:51;;;;;;;8.68;6.22;;;0.80;99.90;;;;;;7391762;19;20329;-82
2023/01/21 09:43:33;;;;;;;9.88;6.38;;;0.80;99.90;;;;;;7392225;19;20380;-81
2023/01/21 09:45:58;;;;;;;11.98;7.28;;;0.80;99.90;;;;;;7392627;19;20324;-79
2023/01/21 09:48:27;;;;;;;9.02;6.28;;;0.90;99.90;;;;;;7386789;19;20355;-79
2023/01/21 09:50:53;;;;;;;8.77;6.10;;;1.00;99.90;;;;;;7385882;19;20975;-78
2023/01/21 09:53:33;;;;;;;8.23;6.30;;;0.90;99.90;;;;;;7386372;19;20362;-80
2023/01/21 09:56:00;;;;;;;9.50;6.25;;;1.00;99.90;;;;;;7388565;19;20300;-84
2023/01/21 09:58:47;;;;;;;8.05;6.40;;;1.00;99.90;;;;;;7388977;19;20373;-84
2023/01/21 10:01:26;;;;;;;7.88;6.15;;;1.00;99.90;;;;;;7384137;19;20320;-79
2023/01/21 10:03:54;;;;;;;8.95;6.15;;;1.10;99.90;;;;;;7280199;19;2020083;-78
2023/01/21 10:06:27;;;;;;;8.07;6.40;;;1.10;99.90;;;;;;7385666;19;20316;-80
2023/01/21 10:09:12;;;;;;;7.82;5.93;;;1.20;99.90;;;;;;7381798;19;21065;-78
2023/01/21 10:12:06;;;;;;;8.07;6.28;;;1.40;99.90;;;;;;7382702;19;20369;-79
2023/01/21 10:14:53;;;;;;;8.07;6.20;;;1.50;99.90;;;;;;7279612;19;2004865;-77
2023/01/21 10:17:30;;;;;;;7.75;6.00;;;1.60;99.90;;;;;;7282772;19;2004324;-75
2023/01/21 10:20:05;;;;;;;8.02;6.25;;;1.50;99.90;;;;;;7383197;19;20422;-79
2023/01/21 10:22:30;;;;;;;7.90;6.10;;;1.50;99.90;;;;;;7383187;19;20424;-77
2023/01/21 10:25:07;;;;;;;8.87;6.30;;;1.50;99.90;;;;;;7380579;19;20365;-79
2023/01/21 10:27:34;;;;;;;10.30;7.53;;;1.60;99.90;;;;;;7380385;19;20890;-77
2023/01/21 10:30:08;;;;;;;8.38;6.15;;;1.50;99.90;;;;;;7383508;19;20853;-79
2023/01/21 10:32:33;;;;;;;8.52;6.78;;;1.50;99.90;;;;;;7382768;19;20325;-80
2023/01/21 10:34:59;;;;;;;7.67;6.50;;;1.50;99.90;;;;;;7386154;19;20649;-78
2023/01/21 10:37:33;;;;;;;9.80;6.53;;;1.50;99.90;;;;;;7384128;19;20321;-76
2023/01/21 10:40:41;;;;;;;10.43;7.30;;;1.60;99.90;;;;;;7383558;19;20771;-78
2023/01/21 10:43:14;;;;;;;11.65;6.85;;;1.60;99.90;;;;;;7280310;19;2004373;-78
2023/01/21 10:46:14;;;;;;;9.73;6.30;;;1.60;99.90;;;;;;7381866;19;20339;-78
2023/01/21 10:48:51;;;;;;;9.70;6.40;;;1.60;99.90;;;;;;7279368;19;2004681;-78
2023/01/21 10:52:01;;;;;;;8.60;5.97;;;1.60;99.90;;;;;;7280847;19;2004916;-80
2023/01/21 10:54:32;;;;;;;9.82;6.80;;;1.70;99.90;;;;;;7278882;19;2004262;-80
2023/01/21 10:57:28;;;;;;;9.13;6.53;;;1.70;99.90;;;;;;7383996;19;20326;-78
2023/01/21 10:59:55;;;;;;;9.60;6.73;;;1.90;99.90;;;;;;7280241;19;2004509;-79
2023/01/21 11:02:30;;;;;;;8.63;6.30;;;1.90;99.90;;;;;;7383448;19;20332;-81
2023/01/21 11:04:58;;;;;;;9.40;6.10;;;1.90;99.90;;;;;;7382376;19;20332;-76
2023/01/21 11:07:23;;;;;;;9.23;7.00;;;2.00;99.90;;;;;;7383711;19;20353;-79
2023/01/21 11:09:52;;;;;;;7.93;6.28;;;2.00;99.90;;;;;;7382894;19;21195;-78
2023/01/21 11:12:25;;;;;;;9.00;6.57;;;2.00;99.90;;;;;;7385442;19;20381;-80
2023/01/21 11:14:57;;;;;;;9.23;6.05;;;2.00;99.90;;;;;;7384215;19;20454;-78
2023/01/21 11:17:33;;;;;;;9.25;6.88;;;1.90;99.90;;;;;;7383286;19;20328;-77
2023/01/21 11:20:00;;;;;;;9.90;6.97;;;1.70;99.90;;;;;;7383551;19;20309;-76
2023/01/21 11:22:41;;;;;;;8.57;6.32;;;1.70;99.90;;;;;;7386121;19;21024;-81
2023/01/21 11:25:27;;;;;;;8.32;6.45;;;1.60;99.90;;;;;;7386713;19;20401;-82
2023/01/21 11:27:53;;;;;;;8.40;6.88;;;1.60;99.90;;;;;;7284591;19;2004461;-84
2023/01/21 11:30:30;;;;;;;12.00;8.50;;;1.70;99.90;;;;;;7387054;19;20309;-80
2023/01/21 11:33:11;;;;;;;10.02;6.90;;;1.60;99.90;;;;;;7386141;19;20317;-81
2023/01/21 11:35:36;;;;;;;8.20;6.18;;;1.60;99.90;;;;;;7386482;19;20854;-80
2023/01/21 11:38:02;;;;;;;8.47;6.07;;;1.60;99.90;;;;;;7385148;19;20316;-81
2023/01/21 11:40:30;;;;;;;9.20;6.75;;;1.70;99.90;;;;;;7386981;19;20671;-81
2023/01/21 11:42:57;;;;;;;8.68;6.10;;;1.70;99.90;;;;;;7384183;19;20304;-86
2023/01/21 11:45:34;;;;;;;8.30;6.60;;;1.70;99.90;;;;;;7383453;19;20337;-82
2023/01/21 11:48:13;;;;;;;10.32;6.97;;;1.80;99.90;;;;;;7362821;19;20331;-81
2023/01/21 11:50:41;;;;;;;9.38;6.93;;;1.80;99.90;;;;;;7385025;19;20436;-85
2023/01/21 11:53:11;;;;;;;9.93;7.38;;;1.70;99.90;;;;;;7382994;19;20329;-80
2023/01/21 11:55:38;;;;;;;8.87;6.50;;;1.70;99.90;;;;;;7382861;19;20305;-81
2023/01/21 11:58:04;;;;;;;10.13;7.32;;;1.70;99.90;;;;;;7384369;19;20403;-81
2023/01/21 12:00:33;;;;;;;14.50;12.73;;;1.70;99.90;;;;;;7378361;19;20289;-82
2023/01/21 12:03:00;;;;;;;8.80;6.70;;;1.60;99.90;;;;;;7382484;19;20321;-79
2023/01/21 12:05:30;;;;;;;9.18;6.32;;;1.50;99.90;;;;;;7382144;19;20333;-81
2023/01/21 12:07:56;;;;;;;9.30;6.78;;;1.60;99.90;;;;;;7383833;19;20728;-79
2023/01/21 12:10:35;;;;;;;7.57;6.43;;;1.60;99.90;;;;;;7384729;19;20368;-84
2023/01/21 12:13:19;;;;;;;9.85;8.00;;;1.50;99.90;;;;;;7382881;19;20328;-85
2023/01/21 12:16:03;;;;;;;9.85;7.82;;;1.40;99.90;;;;;;7364438;19;20317;-78
2023/01/21 12:18:31;;;;;;;11.35;7.80;;;1.40;99.90;;;;;;7242338;19;2004369;-82
2023/01/21 12:21:26;;;;;;;12.07;8.23;;;1.50;99.90;;;;;;7383417;19;20320;-81
2023/01/21 12:24:16;;;;;;;9.03;6.73;;;1.40;99.90;;;;;;7282202;19;2004310;-79
2023/01/21 12:27:10;;;;;;;8.50;6.00;;;1.40;99.90;;;;;;7384737;19;20309;-86
2023/01/21 12:30:03;;;;;;;11.80;7.40;;;1.30;99.90;;;;;;7279159;19;2004666;-82
2023/01/21 12:32:38;;;;;;;21.70;17.95;;;1.20;99.90;;;;;;7282642;19;2004267;-82
2023/01/21 12:35:39;;;;;;;10.40;6.60;;;1.20;99.90;;;;;;7390465;19;20391;-83
2023/01/21 12:38:09;;;;;;;10.90;7.10;;;1.10;99.90;;;;;;7287559;19;2004623;-81
2023/01/21 12:40:55;;;;;;;8.88;6.43;;;1.10;99.90;;;;;;7391008;19;20335;-83
2023/01/21 12:43:32;;;;;;;9.38;6.40;;;1.00;99.90;;;;;;7293839;19;2004223;-89
2023/01/21 12:46:09;;;;;;;8.23;6.30;;;0.90;99.90;;;;;;7407405;19;20675;-87
2023/01/21 12:48:39;;;;;;;9.32;6.28;;;0.80;99.90;;;;;;7409447;19;20337;-82
2023/01/21 12:51:08;;;;;;;8.43;5.40;;;0.70;99.90;;;;;;7398176;19;20349;-88
2023/01/21 12:53:36;;;;;;;9.02;5.35;;;0.70;99.90;;;;;;7402643;19;20408;-88
2023/01/21 12:56:36;;;;;;;8.55;6.45;;;0.70;99.90;;;;;;7399319;19;20872;-89
2023/01/21 12:59:33;;;;;;;9.10;6.28;;;0.60;99.90;;;;;;7300463;19;2004363;-89
2023/01/21 13:02:10;;;;;;;7.88;5.38;;;0.50;99.90;;;;;;7296393;19;2005905;-79
2023/01/21 13:04:44;;;;;;;6.88;5.57;;;0.60;99.90;;;;;;7397506;19;20907;-93